Terminal Aerodrome Forecast
Issued by NWS

Home | Current Version | Previous Version | Text Only | Print | Product List | Glossary On
Versions: 1 2 3 4 5 6 7 8 9 10 11 12 13 14 15 16 17 18
000
FTUS43 KGRR 271135
TAFJXN
TAF
KJXN 271135Z 2712/2812 21015KT P6SM BKN050
     FM271500 25014G24KT P6SM BKN035
     FM271800 24015G25KT 5SM -TSRA BR OVC035CB
     FM272000 27011KT P6SM SCT150
     FM280900 21002KT 4SM BR BKN250=

USA.gov is the U.S. government's official web portal to all federal, state and local government web resources and services.